createdAt,value
2023-01-31T00:01:40.231Z,91.80
2023-01-31T00:04:11.385Z,91.80
2023-01-31T00:06:41.614Z,91.70
2023-01-31T00:09:11.368Z,91.80
2023-01-31T00:11:39.798Z,91.70
2023-01-31T00:14:10.414Z,91.70
2023-01-31T00:16:39.929Z,91.60
2023-01-31T00:19:07.795Z,91.60
2023-01-31T00:21:36.066Z,91.60
2023-01-31T00:24:05.601Z,91.60
2023-01-31T00:26:35.646Z,91.50
2023-01-31T00:29:05.790Z,91.60
2023-01-31T00:31:36.231Z,91.60
2023-01-31T00:34:05.614Z,91.70
2023-01-31T00:36:35.964Z,91.80
2023-01-31T00:39:06.563Z,91.70
2023-01-31T00:41:36.089Z,91.80
2023-01-31T00:44:05.287Z,91.80
2023-01-31T00:46:33.253Z,91.80
2023-01-31T00:49:01.982Z,91.80
2023-01-31T00:51:31.276Z,91.60
2023-01-31T00:53:59.045Z,91.50
2023-01-31T00:56:26.870Z,91.50
2023-01-31T00:58:55.626Z,91.50
2023-01-31T01:01:26.736Z,91.50
2023-01-31T01:03:54.902Z,91.50
2023-01-31T01:06:23.741Z,91.50
2023-01-31T01:08:53.792Z,91.50
2023-01-31T01:11:23.882Z,91.50
2023-01-31T01:13:52.664Z,91.50
2023-01-31T01:16:22.703Z,91.50
2023-01-31T01:18:51.366Z,91.50
2023-01-31T01:21:20.977Z,91.50
2023-01-31T01:23:49.888Z,91.60
2023-01-31T01:26:21.519Z,91.70
2023-01-31T01:28:50.342Z,91.60
2023-01-31T01:31:19.799Z,91.70
2023-01-31T01:33:48.623Z,91.70
2023-01-31T01:36:22.318Z,91.70
2023-01-31T01:38:50.797Z,91.70
2023-01-31T01:41:20.799Z,91.70
2023-01-31T01:43:50.713Z,91.80
2023-01-31T01:46:24.110Z,91.80
2023-01-31T01:48:55.521Z,92.00
2023-01-31T01:51:24.830Z,91.80
2023-01-31T01:53:58.063Z,91.80
2023-01-31T01:56:34.031Z,91.80
2023-01-31T01:59:05.559Z,91.80
2023-01-31T02:01:36.471Z,91.80
2023-01-31T02:04:06.327Z,91.90
2023-01-31T02:06:34.542Z,91.70
2023-01-31T02:09:04.367Z,91.70
2023-01-31T02:11:33.861Z,91.60
2023-01-31T02:14:04.201Z,91.50
2023-01-31T02:16:32.303Z,91.50
2023-01-31T02:19:00.583Z,91.50
2023-01-31T02:21:58.890Z,91.60
2023-01-31T02:24:55.254Z,91.70
2023-01-31T02:27:36.010Z,91.80
2023-01-31T02:30:28.050Z,91.80
2023-01-31T02:33:12.640Z,91.80
2023-01-31T02:35:53.807Z,91.80
2023-01-31T02:38:35.961Z,91.70
2023-01-31T02:41:14.799Z,91.70
2023-01-31T02:44:10.213Z,91.70
2023-01-31T02:46:47.096Z,91.70
2023-01-31T02:49:34.628Z,92.00
2023-01-31T02:52:18.992Z,91.70
2023-01-31T02:55:15.060Z,91.70
2023-01-31T02:57:43.587Z,92.10
2023-01-31T03:00:13.752Z,91.80
2023-01-31T03:02:41.704Z,91.80
2023-01-31T03:05:15.879Z,91.90
2023-01-31T03:07:46.095Z,91.90
2023-01-31T03:10:26.224Z,91.90
2023-01-31T03:13:03.842Z,91.90
2023-01-31T03:16:13.570Z,91.90
2023-01-31T03:18:48.825Z,91.90
2023-01-31T03:21:21.465Z,91.80
2023-01-31T03:23:52.865Z,91.70
2023-01-31T03:26:22.490Z,91.60
2023-01-31T03:28:57.064Z,91.50
2023-01-31T03:31:29.986Z,91.50
2023-01-31T03:34:01.451Z,91.50
2023-01-31T03:36:39.317Z,91.50
2023-01-31T03:39:15.442Z,91.50
2023-01-31T03:41:53.800Z,91.50
2023-01-31T03:44:29.784Z,91.60
2023-01-31T03:47:04.803Z,91.60
2023-01-31T03:49:35.033Z,91.60
2023-01-31T03:52:08.564Z,91.80
2023-01-31T03:54:42.470Z,91.80
2023-01-31T03:57:16.984Z,91.80
2023-01-31T03:59:48.273Z,91.90
2023-01-31T04:02:18.027Z,91.80
2023-01-31T04:04:49.468Z,91.90
2023-01-31T04:07:19.025Z,91.80
2023-01-31T04:09:47.113Z,91.80
2023-01-31T04:12:16.240Z,91.80
2023-01-31T04:14:44.214Z,91.70
2023-01-31T04:17:12.040Z,91.80
2023-01-31T04:19:40.022Z,91.80
2023-01-31T04:22:07.800Z,91.80
2023-01-31T04:24:37.103Z,91.80
2023-01-31T04:27:04.967Z,91.80
2023-01-31T04:29:33.166Z,91.80
2023-01-31T04:32:01.117Z,91.80
2023-01-31T04:34:29.031Z,91.70
2023-01-31T04:36:56.873Z,91.80
2023-01-31T04:39:24.636Z,91.80
2023-01-31T04:41:53.782Z,91.80
2023-01-31T04:44:21.566Z,91.80
2023-01-31T04:46:49.374Z,91.80
2023-01-31T04:49:17.407Z,91.80
2023-01-31T04:51:45.221Z,91.80
2023-01-31T04:54:13.072Z,91.70
2023-01-31T04:56:40.997Z,91.70
2023-01-31T04:59:10.143Z,91.70
2023-01-31T05:01:38.027Z,91.80
2023-01-31T05:04:06.090Z,91.80
2023-01-31T05:06:34.080Z,91.80
2023-01-31T05:09:02.158Z,91.80
2023-01-31T05:11:29.991Z,91.80
2023-01-31T05:13:57.787Z,91.80
2023-01-31T05:16:27.002Z,91.80
2023-01-31T05:18:54.874Z,91.80
2023-01-31T05:21:22.815Z,91.80
2023-01-31T05:23:50.550Z,91.90
2023-01-31T05:26:18.324Z,91.90
2023-01-31T05:28:46.142Z,91.90
2023-01-31T05:31:14.212Z,91.90
2023-01-31T05:33:43.434Z,91.90
2023-01-31T05:36:11.392Z,91.90
2023-01-31T05:38:39.467Z,91.90
2023-01-31T05:41:07.460Z,91.90
2023-01-31T05:43:36.459Z,91.90
2023-01-31T05:46:05.159Z,91.90
2023-01-31T05:48:33.537Z,91.90
2023-01-31T05:51:03.232Z,91.90
2023-01-31T05:53:31.219Z,91.90
2023-01-31T05:55:59.255Z,91.90
2023-01-31T05:58:27.291Z,91.80
2023-01-31T06:00:57.343Z,91.80
2023-01-31T06:03:25.153Z,91.90
2023-01-31T06:05:53.247Z,91.90
2023-01-31T06:08:22.640Z,91.90
2023-01-31T06:10:50.500Z,91.90
2023-01-31T06:13:18.492Z,91.90
2023-01-31T06:15:46.543Z,91.90
2023-01-31T06:18:14.729Z,92.20
2023-01-31T06:20:42.595Z,91.90
2023-01-31T06:23:10.528Z,91.90
2023-01-31T06:25:39.722Z,91.90
2023-01-31T06:28:07.634Z,91.90
2023-01-31T06:30:36.615Z,91.90
2023-01-31T06:33:04.620Z,91.90
2023-01-31T06:35:33.999Z,91.90
2023-01-31T06:38:01.809Z,91.90
2023-01-31T06:40:30.738Z,91.90
2023-01-31T06:43:00.784Z,92.20
2023-01-31T06:45:28.863Z,91.90
2023-01-31T06:47:56.703Z,91.90
2023-01-31T06:50:24.509Z,91.90
2023-01-31T06:52:54.418Z,91.90
2023-01-31T06:55:22.633Z,91.90
2023-01-31T06:57:51.039Z,91.90
2023-01-31T07:00:21.209Z,91.90
2023-01-31T07:02:49.752Z,91.90
2023-01-31T07:05:18.028Z,91.90
2023-01-31T07:07:46.661Z,91.90
2023-01-31T07:10:15.209Z,91.90
2023-01-31T07:12:43.169Z,91.90
2023-01-31T07:15:12.137Z,91.90
2023-01-31T07:17:41.398Z,91.90
2023-01-31T07:20:10.691Z,91.90
2023-01-31T07:22:38.497Z,91.90
2023-01-31T07:25:07.166Z,92.00
2023-01-31T07:27:35.245Z,92.00
2023-01-31T07:30:03.007Z,92.00
2023-01-31T07:32:31.910Z,92.00
2023-01-31T07:35:01.423Z,92.00
2023-01-31T07:37:29.871Z,92.00
2023-01-31T07:39:58.821Z,92.00
2023-01-31T07:42:26.687Z,92.00
2023-01-31T07:44:54.894Z,92.00
2023-01-31T07:47:22.675Z,92.00
2023-01-31T07:49:52.237Z,92.10
2023-01-31T07:52:21.357Z,92.10
2023-01-31T07:54:49.213Z,92.10
2023-01-31T07:57:17.873Z,92.00
2023-01-31T07:59:45.752Z,92.10
2023-01-31T08:02:31.959Z,92.10
2023-01-31T08:04:59.878Z,92.10
2023-01-31T08:07:30.729Z,92.10
2023-01-31T08:09:58.539Z,92.10
2023-01-31T08:12:26.399Z,92.10
2023-01-31T08:14:54.191Z,92.10
2023-01-31T08:17:22.346Z,92.20
2023-01-31T08:19:50.173Z,92.20
2023-01-31T08:22:17.977Z,92.20
2023-01-31T08:24:47.088Z,92.20
2023-01-31T08:27:14.919Z,92.20
2023-01-31T08:29:42.733Z,92.20
2023-01-31T08:32:10.689Z,92.20
2023-01-31T08:34:38.500Z,92.30
2023-01-31T08:37:06.344Z,92.30
2023-01-31T08:39:34.133Z,92.30
2023-01-31T08:42:03.264Z,92.30
2023-01-31T08:44:31.435Z,92.20
2023-01-31T08:47:01.823Z,92.20
2023-01-31T08:49:30.260Z,92.20
2023-01-31T08:51:58.212Z,92.20
2023-01-31T08:54:25.959Z,92.30
2023-01-31T08:56:53.724Z,92.30
2023-01-31T08:59:23.096Z,92.30
2023-01-31T09:01:50.880Z,92.20
2023-01-31T09:04:18.661Z,92.30
2023-01-31T09:06:46.454Z,92.30
2023-01-31T09:09:14.313Z,92.30
2023-01-31T09:11:42.063Z,92.30
2023-01-31T09:14:09.827Z,92.30
2023-01-31T09:16:39.756Z,92.30
2023-01-31T09:19:08.422Z,92.30
2023-01-31T09:21:36.317Z,92.20
2023-01-31T09:24:04.197Z,92.20
2023-01-31T09:26:33.389Z,92.20
2023-01-31T09:29:01.997Z,92.10
2023-01-31T09:31:30.431Z,92.10
2023-01-31T09:34:00.841Z,92.10
2023-01-31T09:36:29.081Z,92.10
2023-01-31T09:38:57.730Z,92.10
2023-01-31T09:41:31.169Z,92.20
2023-01-31T09:44:02.597Z,92.30
2023-01-31T09:46:37.302Z,92.30
2023-01-31T09:49:11.098Z,92.30
2023-01-31T09:51:40.134Z,92.40
2023-01-31T09:54:18.210Z,92.40
2023-01-31T09:56:55.383Z,92.40
2023-01-31T09:59:24.930Z,92.30
2023-01-31T10:02:00.219Z,92.30
2023-01-31T10:04:47.351Z,92.30
2023-01-31T10:07:21.209Z,92.30
2023-01-31T10:09:54.806Z,92.30
2023-01-31T10:12:29.375Z,92.30
2023-01-31T10:15:01.454Z,92.30
2023-01-31T10:17:34.828Z,92.30
2023-01-31T10:20:09.478Z,92.30
2023-01-31T10:22:41.039Z,92.30
2023-01-31T10:25:21.425Z,92.30
2023-01-31T10:27:53.025Z,92.40
2023-01-31T10:30:24.837Z,92.40
2023-01-31T10:32:58.632Z,92.40
2023-01-31T10:35:31.986Z,92.40
2023-01-31T10:38:05.628Z,92.40
2023-01-31T10:40:37.344Z,92.40
2023-01-31T10:43:14.821Z,92.40
2023-01-31T10:45:42.924Z,92.40
2023-01-31T10:48:17.173Z,92.40
2023-01-31T10:50:59.167Z,92.40
2023-01-31T10:53:48.773Z,92.30
2023-01-31T10:56:22.223Z,92.30
2023-01-31T10:58:51.911Z,92.30
2023-01-31T11:01:19.822Z,92.30
2023-01-31T11:03:51.052Z,92.30
2023-01-31T11:06:20.706Z,92.40
2023-01-31T11:08:50.379Z,92.50
2023-01-31T11:11:20.169Z,92.40
2023-01-31T11:13:58.924Z,92.50
2023-01-31T11:16:31.013Z,92.50
2023-01-31T11:18:59.971Z,92.40
2023-01-31T11:21:32.012Z,92.40
2023-01-31T11:24:05.382Z,92.40
2023-01-31T11:26:36.224Z,92.40
2023-01-31T11:29:11.413Z,92.40
2023-01-31T11:31:45.538Z,92.40
2023-01-31T11:34:22.700Z,92.40
2023-01-31T11:36:52.233Z,92.40
2023-01-31T11:39:27.426Z,92.30
2023-01-31T11:41:55.329Z,92.30
2023-01-31T11:44:24.409Z,92.40
2023-01-31T11:46:54.720Z,92.40
2023-01-31T11:49:31.615Z,92.40
2023-01-31T11:52:03.716Z,92.40
2023-01-31T11:54:35.489Z,92.30
2023-01-31T11:57:03.798Z,92.40
2023-01-31T11:59:32.463Z,92.40
2023-01-31T12:02:01.806Z,92.40
2023-01-31T12:04:34.862Z,92.40
2023-01-31T12:07:06.400Z,92.40
2023-01-31T12:09:43.794Z,92.30
2023-01-31T12:12:30.004Z,92.30
2023-01-31T12:15:01.682Z,92.40
2023-01-31T12:17:32.462Z,92.40
2023-01-31T12:20:27.613Z,92.40
2023-01-31T12:23:07.222Z,92.40
2023-01-31T12:25:47.287Z,92.40
2023-01-31T12:28:26.504Z,92.40
2023-01-31T12:31:06.777Z,92.40
2023-01-31T12:33:51.459Z,92.40
2023-01-31T12:36:32.769Z,92.50
2023-01-31T12:39:21.535Z,92.50
2023-01-31T12:42:02.919Z,92.50
2023-01-31T12:44:43.304Z,92.50
2023-01-31T12:47:25.174Z,92.60
2023-01-31T12:50:06.235Z,92.50
2023-01-31T12:52:43.534Z,92.50
2023-01-31T12:55:22.015Z,92.50
2023-01-31T12:57:57.413Z,92.50
2023-01-31T13:00:32.907Z,92.40
2023-01-31T13:03:26.411Z,92.50
2023-01-31T13:05:58.928Z,92.50
2023-01-31T13:08:29.898Z,92.40
2023-01-31T13:11:03.341Z,92.40
2023-01-31T13:13:34.479Z,92.40
2023-01-31T13:16:06.653Z,92.40
2023-01-31T13:18:36.687Z,92.50
2023-01-31T13:21:07.185Z,92.50
2023-01-31T13:23:40.845Z,92.50
2023-01-31T13:26:14.613Z,92.50
2023-01-31T13:28:47.564Z,92.50
2023-01-31T13:31:21.465Z,92.50
2023-01-31T13:33:55.800Z,92.50
2023-01-31T13:36:29.978Z,92.60
2023-01-31T13:39:01.574Z,92.60
2023-01-31T13:41:33.363Z,92.60
2023-01-31T13:44:03.091Z,92.60
2023-01-31T13:46:35.955Z,92.70
2023-01-31T13:49:07.886Z,92.70
2023-01-31T13:51:41.807Z,92.70
2023-01-31T13:54:17.798Z,92.70
2023-01-31T13:56:51.897Z,92.70
2023-01-31T13:59:23.517Z,92.70
2023-01-31T14:01:52.933Z,92.60
2023-01-31T14:04:32.934Z,92.70
2023-01-31T14:07:22.896Z,92.70
2023-01-31T14:10:29.710Z,92.70
2023-01-31T14:13:38.628Z,92.70
2023-01-31T14:16:40.842Z,92.70
2023-01-31T14:19:41.127Z,92.70
2023-01-31T14:22:16.440Z,92.70
2023-01-31T14:25:07.042Z,92.60
2023-01-31T14:27:39.533Z,92.70
2023-01-31T14:30:36.664Z,92.70
2023-01-31T14:33:17.544Z,92.70
2023-01-31T14:36:05.034Z,93.00
2023-01-31T14:38:47.541Z,92.70
2023-01-31T14:41:22.777Z,92.70
2023-01-31T14:44:00.504Z,92.70
2023-01-31T14:46:46.071Z,92.60
2023-01-31T14:49:35.078Z,92.60
2023-01-31T14:52:48.620Z,92.60
2023-01-31T14:55:48.532Z,92.60
2023-01-31T14:58:20.815Z,92.50
2023-01-31T15:00:51.563Z,92.50
2023-01-31T15:03:25.140Z,92.80
2023-01-31T15:05:56.660Z,92.50
2023-01-31T15:08:43.140Z,92.50
2023-01-31T15:11:42.245Z,92.50
2023-01-31T15:14:35.827Z,92.50
2023-01-31T15:17:14.875Z,92.50
2023-01-31T15:19:54.088Z,92.50
2023-01-31T15:22:23.243Z,92.50
2023-01-31T15:24:53.890Z,92.50
2023-01-31T15:27:24.577Z,92.50
2023-01-31T15:30:06.728Z,92.50
2023-01-31T15:32:40.590Z,92.50
2023-01-31T15:35:18.936Z,92.50
2023-01-31T15:37:48.792Z,92.50
2023-01-31T15:40:21.416Z,92.60
2023-01-31T15:42:49.223Z,92.60
2023-01-31T15:45:23.581Z,92.60
2023-01-31T15:47:59.689Z,92.50
2023-01-31T15:50:30.633Z,92.50
2023-01-31T15:53:02.655Z,92.50
2023-01-31T15:55:30.582Z,92.50
2023-01-31T15:58:00.963Z,92.50
2023-01-31T16:00:30.925Z,92.50
2023-01-31T16:03:02.347Z,92.70
2023-01-31T16:05:33.273Z,92.50
2023-01-31T16:08:02.328Z,92.60
2023-01-31T16:10:31.553Z,92.50
2023-01-31T16:13:01.775Z,92.50
2023-01-31T16:15:31.770Z,92.50
2023-01-31T16:18:03.459Z,92.50
2023-01-31T16:20:43.645Z,92.50
2023-01-31T16:23:30.780Z,92.60
2023-01-31T16:26:07.604Z,92.60
2023-01-31T16:28:41.703Z,92.60
2023-01-31T16:31:11.733Z,92.40
2023-01-31T16:33:47.159Z,92.00
2023-01-31T16:36:24.322Z,92.00
2023-01-31T16:38:58.025Z,92.00
2023-01-31T16:41:43.196Z,92.10
2023-01-31T16:44:18.532Z,92.00
2023-01-31T16:46:47.949Z,92.10
2023-01-31T16:49:22.586Z,92.10
2023-01-31T16:51:53.204Z,92.20
2023-01-31T16:54:25.346Z,92.30
2023-01-31T16:57:08.501Z,92.40
2023-01-31T16:59:45.220Z,92.50
2023-01-31T17:02:29.204Z,92.50
2023-01-31T17:04:59.368Z,92.50
2023-01-31T17:07:31.148Z,92.30
2023-01-31T17:10:01.846Z,92.20
2023-01-31T17:12:31.453Z,92.20
2023-01-31T17:15:03.102Z,92.30
2023-01-31T17:17:33.996Z,92.20
2023-01-31T17:20:02.024Z,92.10
2023-01-31T17:22:31.293Z,92.00
2023-01-31T17:24:59.224Z,92.00
2023-01-31T17:27:27.171Z,92.00
2023-01-31T17:29:55.016Z,92.00
2023-01-31T17:32:22.945Z,92.00
2023-01-31T17:34:50.751Z,92.00
2023-01-31T17:37:30.029Z,92.00
2023-01-31T17:40:00.961Z,92.00
2023-01-31T17:42:28.800Z,92.00
2023-01-31T17:44:57.056Z,91.90
2023-01-31T17:47:26.781Z,92.00
2023-01-31T17:49:54.854Z,91.90
2023-01-31T17:52:22.798Z,91.80
2023-01-31T17:54:50.769Z,91.80
2023-01-31T17:57:20.048Z,91.90
2023-01-31T17:59:47.825Z,92.00
2023-01-31T18:02:15.669Z,91.90
2023-01-31T18:04:43.536Z,91.90
2023-01-31T18:07:15.800Z,91.90
2023-01-31T18:09:43.735Z,91.90
2023-01-31T18:12:11.505Z,91.90
2023-01-31T18:14:40.916Z,91.90
2023-01-31T18:17:09.196Z,92.00
2023-01-31T18:19:37.155Z,92.00
2023-01-31T18:22:04.997Z,92.00
2023-01-31T18:24:32.899Z,92.00
2023-01-31T18:27:01.048Z,92.00
2023-01-31T18:29:29.799Z,92.00
2023-01-31T18:32:02.446Z,92.00
2023-01-31T18:34:31.151Z,92.00
2023-01-31T18:36:59.465Z,92.00
2023-01-31T18:39:27.539Z,92.00
2023-01-31T18:41:56.099Z,92.00
2023-01-31T18:44:24.356Z,92.00
2023-01-31T18:46:52.288Z,92.10
2023-01-31T18:49:22.069Z,92.10
2023-01-31T18:51:50.530Z,92.20
2023-01-31T18:54:18.831Z,92.20
2023-01-31T18:56:46.798Z,92.20
2023-01-31T18:59:15.106Z,92.20
2023-01-31T19:01:43.653Z,92.10
2023-01-31T19:04:11.706Z,91.90
2023-01-31T19:06:41.862Z,91.80
2023-01-31T19:09:11.217Z,91.60
2023-01-31T19:11:40.306Z,91.60
2023-01-31T19:14:08.615Z,91.60
2023-01-31T19:16:40.157Z,91.80
2023-01-31T19:19:09.053Z,91.80
2023-01-31T19:21:38.459Z,91.80
2023-01-31T19:24:12.580Z,91.80
2023-01-31T19:26:40.641Z,91.80
2023-01-31T19:29:09.958Z,91.80
2023-01-31T19:31:38.444Z,91.80
2023-01-31T19:34:07.816Z,91.80
2023-01-31T19:36:37.747Z,91.90
2023-01-31T19:39:09.543Z,92.00
2023-01-31T19:41:37.645Z,92.00
2023-01-31T19:44:07.357Z,92.00
2023-01-31T19:46:38.226Z,91.90
2023-01-31T19:49:06.660Z,91.80
2023-01-31T19:51:35.463Z,91.80
2023-01-31T19:54:04.151Z,91.80
2023-01-31T19:56:33.991Z,91.80
2023-01-31T19:59:02.619Z,91.80
2023-01-31T20:01:30.473Z,91.80
2023-01-31T20:04:01.658Z,91.70
2023-01-31T20:06:33.776Z,91.70
2023-01-31T20:09:04.707Z,91.80
2023-01-31T20:11:35.015Z,91.90
2023-01-31T20:14:04.721Z,91.90
2023-01-31T20:16:32.617Z,91.90
2023-01-31T20:19:03.690Z,92.30
2023-01-31T20:21:31.582Z,92.00
2023-01-31T20:23:59.561Z,92.00
2023-01-31T20:26:29.410Z,92.00
2023-01-31T20:28:59.106Z,92.00
2023-01-31T20:31:26.981Z,92.00
2023-01-31T20:33:55.773Z,92.00
2023-01-31T20:36:24.086Z,92.00
2023-01-31T20:38:52.026Z,92.10
2023-01-31T20:41:19.963Z,92.00
2023-01-31T20:43:50.421Z,92.00
2023-01-31T20:46:20.180Z,91.90
2023-01-31T20:48:48.018Z,92.20
2023-01-31T20:51:16.107Z,91.90
2023-01-31T20:53:43.924Z,91.90
2023-01-31T20:56:12.381Z,91.90
2023-01-31T20:58:43.044Z,91.90
2023-01-31T21:01:12.207Z,91.90
2023-01-31T21:03:41.751Z,91.90
2023-01-31T21:06:09.988Z,91.90
2023-01-31T21:08:38.121Z,91.80
2023-01-31T21:11:07.708Z,91.70
2023-01-31T21:13:36.577Z,91.70
2023-01-31T21:16:06.934Z,91.60
2023-01-31T21:18:36.954Z,91.60
2023-01-31T21:21:08.803Z,91.70
2023-01-31T21:23:36.983Z,91.80
2023-01-31T21:26:06.378Z,91.80
2023-01-31T21:28:34.572Z,91.80
2023-01-31T21:31:03.964Z,91.90
2023-01-31T21:33:32.469Z,91.80
2023-01-31T21:36:00.673Z,91.80
2023-01-31T21:38:29.938Z,91.80
2023-01-31T21:41:15.650Z,91.80
2023-01-31T21:43:43.393Z,91.80
2023-01-31T21:46:12.201Z,91.80
2023-01-31T21:48:42.521Z,91.80
2023-01-31T21:51:12.232Z,91.80
2023-01-31T21:53:42.460Z,91.80
2023-01-31T21:56:12.412Z,91.80
2023-01-31T21:58:41.340Z,91.80
2023-01-31T22:01:11.494Z,91.80
2023-01-31T22:03:42.499Z,92.00
2023-01-31T22:06:12.147Z,91.70
2023-01-31T22:08:41.663Z,91.70
2023-01-31T22:11:10.897Z,91.60
2023-01-31T22:13:39.638Z,91.70
2023-01-31T22:16:09.943Z,91.70
2023-01-31T22:18:38.743Z,91.70
2023-01-31T22:21:08.572Z,91.80
2023-01-31T22:23:38.662Z,91.80
2023-01-31T22:26:09.562Z,91.80
2023-01-31T22:28:37.398Z,91.80
2023-01-31T22:31:06.192Z,91.80
2023-01-31T22:33:37.347Z,91.70
2023-01-31T22:36:06.595Z,91.70
2023-01-31T22:38:34.765Z,91.70
2023-01-31T22:41:05.944Z,92.00
2023-01-31T22:43:37.331Z,91.70
2023-01-31T22:46:07.724Z,91.70
2023-01-31T22:48:36.627Z,91.60
2023-01-31T22:51:06.875Z,91.60
2023-01-31T22:53:36.384Z,91.70
2023-01-31T22:56:06.442Z,91.70
2023-01-31T22:58:36.029Z,91.70
2023-01-31T23:01:04.159Z,91.70
2023-01-31T23:03:32.002Z,91.70
2023-01-31T23:05:59.750Z,91.70
2023-01-31T23:08:27.611Z,91.60
2023-01-31T23:10:55.363Z,91.60
2023-01-31T23:13:23.279Z,91.60
2023-01-31T23:15:52.445Z,91.60
2023-01-31T23:18:20.272Z,91.60
2023-01-31T23:20:48.187Z,91.60
2023-01-31T23:23:16.188Z,91.60
2023-01-31T23:25:43.940Z,91.70
2023-01-31T23:28:11.682Z,91.70
2023-01-31T23:30:39.624Z,91.70
2023-01-31T23:33:08.780Z,91.70
2023-01-31T23:35:36.758Z,91.70
2023-01-31T23:38:04.697Z,91.70
2023-01-31T23:40:32.610Z,91.70
2023-01-31T23:43:00.392Z,91.70
2023-01-31T23:45:28.318Z,91.70
2023-01-31T23:47:56.033Z,91.70
2023-01-31T23:50:25.203Z,91.70
2023-01-31T23:52:53.449Z,91.70
2023-01-31T23:55:22.770Z,91.70
2023-01-31T23:57:50.885Z,91.70
